sensor_id;sensor_type;location;lat;lon;timestamp;pressure;altitude;pressure_sealevel;temperature;humidity
32452;BME280;45528;52.102;5.242;2023-02-01T00:01:24;101551.0;;;12.44;50.09
32452;BME280;45528;52.102;5.242;2023-02-01T00:03:00;101555.0;;;12.27;50.21
32452;BME280;45528;52.102;5.242;2023-02-01T00:04:37;101548.0;;;12.35;50.37
32452;BME280;45528;52.102;5.242;2023-02-01T00:07:49;101550.0;;;12.59;50.15
32452;BME280;45528;52.102;5.242;2023-02-01T00:09:26;101544.0;;;12.63;50.11
32452;BME280;45528;52.102;5.242;2023-02-01T00:11:03;101556.0;;;12.52;50.06
32452;BME280;45528;52.102;5.242;2023-02-01T00:14:17;101553.0;;;12.64;49.91
32452;BME280;45528;52.102;5.242;2023-02-01T00:15:54;101553.0;;;12.51;50.25
32452;BME280;45528;52.102;5.242;2023-02-01T00:17:30;101556.0;;;12.84;49.6
32452;BME280;45528;52.102;5.242;2023-02-01T00:19:09;101553.0;;;12.28;51.12
32452;BME280;45528;52.102;5.242;2023-02-01T00:22:24;101549.0;;;12.64;50.31
32452;BME280;45528;52.102;5.242;2023-02-01T00:24:01;101546.0;;;12.61;50.16
32452;BME280;45528;52.102;5.242;2023-02-01T00:25:38;101552.0;;;12.43;50.8
32452;BME280;45528;52.102;5.242;2023-02-01T00:28:53;101544.0;;;12.58;50.55
32452;BME280;45528;52.102;5.242;2023-02-01T00:30:29;101542.0;;;12.56;50.15
32452;BME280;45528;52.102;5.242;2023-02-01T00:32:05;101541.0;;;12.63;50.44
32452;BME280;45528;52.102;5.242;2023-02-01T00:33:42;101547.0;;;12.75;50.19
32452;BME280;45528;52.102;5.242;2023-02-01T00:36:54;101540.0;;;12.37;50.96
32452;BME280;45528;52.102;5.242;2023-02-01T00:38:31;101528.0;;;12.71;50.48
32452;BME280;45528;52.102;5.242;2023-02-01T00:40:09;101530.0;;;12.7;50.3
32452;BME280;45528;52.102;5.242;2023-02-01T00:43:22;101534.0;;;12.53;50.86
32452;BME280;45528;52.102;5.242;2023-02-01T00:44:58;101530.0;;;12.59;50.75
32452;BME280;45528;52.102;5.242;2023-02-01T00:46:35;101531.0;;;12.65;50.44
32452;BME280;45528;52.102;5.242;2023-02-01T00:49:48;101535.0;;;12.85;50.19
32452;BME280;45528;52.102;5.242;2023-02-01T00:51:26;101545.0;;;12.61;50.6
32452;BME280;45528;52.102;5.242;2023-02-01T00:53:03;101534.0;;;12.65;50.55
32452;BME280;45528;52.102;5.242;2023-02-01T00:54:39;101536.0;;;12.73;50.29
32452;BME280;45528;52.102;5.242;2023-02-01T00:57:52;101539.0;;;12.5;51.01
32452;BME280;45528;52.102;5.242;2023-02-01T00:59:28;101539.0;;;12.43;50.99
32452;BME280;45528;52.102;5.242;2023-02-01T01:01:07;101528.0;;;12.54;50.65
32452;BME280;45528;52.102;5.242;2023-02-01T01:04:20;101525.0;;;12.84;50.07
32452;BME280;45528;52.102;5.242;2023-02-01T01:05:57;101530.0;;;12.51;50.54
32452;BME280;45528;52.102;5.242;2023-02-01T01:07:33;101528.0;;;12.57;50.59
32452;BME280;45528;52.102;5.242;2023-02-01T01:10:45;101531.0;;;12.96;49.47
32452;BME280;45528;52.102;5.242;2023-02-01T01:12:21;101527.0;;;12.73;49.74
32452;BME280;45528;52.102;5.242;2023-02-01T01:13:58;101519.0;;;12.87;49.46
32452;BME280;45528;52.102;5.242;2023-02-01T01:15:37;101514.0;;;12.85;49.51
32452;BME280;45528;52.102;5.242;2023-02-01T01:18:50;101519.0;;;12.69;49.69
32452;BME280;45528;52.102;5.242;2023-02-01T01:20:27;101526.0;;;12.74;49.52
32452;BME280;45528;52.102;5.242;2023-02-01T01:22:03;101523.0;;;12.73;49.6
32452;BME280;45528;52.102;5.242;2023-02-01T01:25:17;101527.0;;;12.8;49.26
32452;BME280;45528;52.102;5.242;2023-02-01T01:26:53;101521.0;;;12.84;49.29
32452;BME280;45528;52.102;5.242;2023-02-01T01:28:29;101513.0;;;12.83;48.54
32452;BME280;45528;52.102;5.242;2023-02-01T01:31:43;101519.0;;;13.1;48.34
32452;BME280;45528;52.102;5.242;2023-02-01T01:33:19;101519.0;;;12.96;48.45
32452;BME280;45528;52.102;5.242;2023-02-01T01:34:55;101521.0;;;13.13;48.45
32452;BME280;45528;52.102;5.242;2023-02-01T01:36:31;101519.0;;;13.12;48.29
32452;BME280;45528;52.102;5.242;2023-02-01T01:39:45;101527.0;;;13.14;48.38
32452;BME280;45528;52.102;5.242;2023-02-01T01:41:23;101523.0;;;13.09;48.52
32452;BME280;45528;52.102;5.242;2023-02-01T01:43:00;101519.0;;;13.04;48.54
32452;BME280;45528;52.102;5.242;2023-02-01T01:46:57;101518.0;;;12.98;49.11
32452;BME280;45528;52.102;5.242;2023-02-01T01:50:14;101516.0;;;13.12;48.72
32452;BME280;45528;52.102;5.242;2023-02-01T01:51:57;101514.0;;;12.7;49.43
32452;BME280;45528;52.102;5.242;2023-02-01T01:53:42;101502.0;;;12.8;49.41
32452;BME280;45528;52.102;5.242;2023-02-01T01:55:21;101509.0;;;13.2;48.58
32452;BME280;45528;52.102;5.242;2023-02-01T01:58:42;101501.0;;;12.72;49.73
32452;BME280;45528;52.102;5.242;2023-02-01T02:00:20;101498.0;;;13.06;49.21
32452;BME280;45528;52.102;5.242;2023-02-01T02:01:57;101491.0;;;12.9;49.65
32452;BME280;45528;52.102;5.242;2023-02-01T02:05:15;101494.0;;;12.76;50.26
32452;BME280;45528;52.102;5.242;2023-02-01T02:06:59;101490.0;;;12.99;49.87
32452;BME280;45528;52.102;5.242;2023-02-01T02:08:37;101487.0;;;12.92;49.74
32452;BME280;45528;52.102;5.242;2023-02-01T02:10:14;101485.0;;;13.33;49.18
32452;BME280;45528;52.102;5.242;2023-02-01T02:13:31;101487.0;;;12.61;50.47
32452;BME280;45528;52.102;5.242;2023-02-01T02:15:12;101488.0;;;12.94;50.21
32452;BME280;45528;52.102;5.242;2023-02-01T02:16:58;101475.0;;;12.84;50.31
32452;BME280;45528;52.102;5.242;2023-02-01T02:19:06;101486.0;;;12.98;50.47
32452;BME280;45528;52.102;5.242;2023-02-01T02:21:05;101485.0;;;13.21;49.76
32452;BME280;45528;52.102;5.242;2023-02-01T02:23:03;101485.0;;;13.05;50.08
32452;BME280;45528;52.102;5.242;2023-02-01T02:26:39;101480.0;;;12.9;50.46
32452;BME280;45528;52.102;5.242;2023-02-01T02:29:01;101474.0;;;13.06;50.67
32452;BME280;45528;52.102;5.242;2023-02-01T02:34:54;101464.0;;;13.26;50.12
32452;BME280;45528;52.102;5.242;2023-02-01T02:36:40;101468.0;;;13.28;50.2
32452;BME280;45528;52.102;5.242;2023-02-01T02:38:29;101471.0;;;13.49;49.75
32452;BME280;45528;52.102;5.242;2023-02-01T02:40:15;101459.0;;;13.36;49.94
32452;BME280;45528;52.102;5.242;2023-02-01T02:47:33;101456.0;;;13.14;50.42
32452;BME280;45528;52.102;5.242;2023-02-01T02:49:43;101457.0;;;13.19;50.09
32452;BME280;45528;52.102;5.242;2023-02-01T02:55:38;101473.0;;;13.39;49.88
32452;BME280;45528;52.102;5.242;2023-02-01T03:05:37;101424.0;;;12.94;50.43
32452;BME280;45528;52.102;5.242;2023-02-01T03:07:53;101436.0;;;12.79;50.88
32452;BME280;45528;52.102;5.242;2023-02-01T03:09:37;101438.0;;;13.38;49.58
32452;BME280;45528;52.102;5.242;2023-02-01T03:11:16;101445.0;;;13.17;49.94
32452;BME280;45528;52.102;5.242;2023-02-01T03:13:02;101437.0;;;13.07;50.06
32452;BME280;45528;52.102;5.242;2023-02-01T03:16:24;101439.0;;;13.51;49.2
32452;BME280;45528;52.102;5.242;2023-02-01T03:18:10;101439.0;;;13.49;49.23
32452;BME280;45528;52.102;5.242;2023-02-01T03:19:51;101428.0;;;13.43;49.17
32452;BME280;45528;52.102;5.242;2023-02-01T03:21:31;101433.0;;;13.55;48.88
32452;BME280;45528;52.102;5.242;2023-02-01T03:23:16;101432.0;;;13.25;49.49
32452;BME280;45528;52.102;5.242;2023-02-01T03:26:43;101432.0;;;12.77;50.23
32452;BME280;45528;52.102;5.242;2023-02-01T03:28:27;101427.0;;;13.16;49.69
32452;BME280;45528;52.102;5.242;2023-02-01T03:30:12;101420.0;;;12.87;50.17
32452;BME280;45528;52.102;5.242;2023-02-01T03:31:53;101431.0;;;12.67;50.78
32452;BME280;45528;52.102;5.242;2023-02-01T03:35:07;101428.0;;;12.98;50.0
32452;BME280;45528;52.102;5.242;2023-02-01T03:36:48;101437.0;;;12.71;50.47
32452;BME280;45528;52.102;5.242;2023-02-01T03:38:30;101433.0;;;12.44;51.35
32452;BME280;45528;52.102;5.242;2023-02-01T03:40:08;101434.0;;;12.57;51.39
32452;BME280;45528;52.102;5.242;2023-02-01T03:43:29;101437.0;;;13.13;50.12
32452;BME280;45528;52.102;5.242;2023-02-01T03:45:13;101438.0;;;13.07;50.31
32452;BME280;45528;52.102;5.242;2023-02-01T03:46:58;101434.0;;;13.03;50.4
32452;BME280;45528;52.102;5.242;2023-02-01T03:48:36;101439.0;;;12.85;51.07
32452;BME280;45528;52.102;5.242;2023-02-01T03:51:57;101432.0;;;12.66;51.41
32452;BME280;45528;52.102;5.242;2023-02-01T03:53:36;101458.0;;;13.14;50.48
32452;BME280;45528;52.102;5.242;2023-02-01T03:55:19;101452.0;;;12.79;51.13
32452;BME280;45528;52.102;5.242;2023-02-01T03:57:01;101450.0;;;13.03;51.01
32452;BME280;45528;52.102;5.242;2023-02-01T04:00:20;101445.0;;;13.3;50.29
32452;BME280;45528;52.102;5.242;2023-02-01T04:01:59;101452.0;;;13.06;50.74
32452;BME280;45528;52.102;5.242;2023-02-01T04:03:35;101448.0;;;12.93;51.1
32452;BME280;45528;52.102;5.242;2023-02-01T04:05:11;101450.0;;;12.91;51.09
32452;BME280;45528;52.102;5.242;2023-02-01T04:08:25;101456.0;;;13.13;50.67
32452;BME280;45528;52.102;5.242;2023-02-01T04:10:01;101453.0;;;12.98;50.9
32452;BME280;45528;52.102;5.242;2023-02-01T04:11:38;101456.0;;;12.94;50.97
32452;BME280;45528;52.102;5.242;2023-02-01T04:14:50;101450.0;;;13.2;50.36
32452;BME280;45528;52.102;5.242;2023-02-01T04:16:27;101426.0;;;12.9;50.68
32452;BME280;45528;52.102;5.242;2023-02-01T04:18:04;101420.0;;;12.69;51.12
32452;BME280;45528;52.102;5.242;2023-02-01T04:19:40;101438.0;;;12.98;50.76
32452;BME280;45528;52.102;5.242;2023-02-01T04:22:53;101431.0;;;12.9;50.55
32452;BME280;45528;52.102;5.242;2023-02-01T04:24:30;101448.0;;;13.01;50.47
32452;BME280;45528;52.102;5.242;2023-02-01T04:26:06;101449.0;;;12.86;50.75
32452;BME280;45528;52.102;5.242;2023-02-01T04:29:19;101457.0;;;12.73;50.94
32452;BME280;45528;52.102;5.242;2023-02-01T04:30:55;101452.0;;;12.86;50.67
32452;BME280;45528;52.102;5.242;2023-02-01T04:32:32;101448.0;;;12.83;50.61
32452;BME280;45528;52.102;5.242;2023-02-01T04:35:45;101451.0;;;13.15;49.86
32452;BME280;45528;52.102;5.242;2023-02-01T04:37:21;101445.0;;;13.26;49.79
32452;BME280;45528;52.102;5.242;2023-02-01T04:38:57;101449.0;;;12.92;50.46
32452;BME280;45528;52.102;5.242;2023-02-01T04:42:09;101451.0;;;13.16;50.42
32452;BME280;45528;52.102;5.242;2023-02-01T04:43:45;101460.0;;;13.06;50.41
32452;BME280;45528;52.102;5.242;2023-02-01T04:45:22;101452.0;;;13.41;49.5
32452;BME280;45528;52.102;5.242;2023-02-01T04:46:58;101448.0;;;13.48;49.5
32452;BME280;45528;52.102;5.242;2023-02-01T04:50:11;101437.0;;;13.17;49.91
32452;BME280;45528;52.102;5.242;2023-02-01T04:51:47;101438.0;;;13.02;50.54
32452;BME280;45528;52.102;5.242;2023-02-01T04:53:24;101435.0;;;13.12;50.22
32452;BME280;45528;52.102;5.242;2023-02-01T04:56:39;101434.0;;;12.89;51.02
32452;BME280;45528;52.102;5.242;2023-02-01T04:58:16;101411.0;;;12.9;50.72
32452;BME280;45528;52.102;5.242;2023-02-01T04:59:52;101424.0;;;12.69;51.41
32452;BME280;45528;52.102;5.242;2023-02-01T05:03:06;101435.0;;;13.12;50.4
32452;BME280;45528;52.102;5.242;2023-02-01T05:04:43;101427.0;;;12.9;50.77
32452;BME280;45528;52.102;5.242;2023-02-01T05:06:19;101436.0;;;13.0;50.65
32452;BME280;45528;52.102;5.242;2023-02-01T05:07:55;101430.0;;;13.05;50.47
32452;BME280;45528;52.102;5.242;2023-02-01T05:13:48;101435.0;;;12.56;51.28
32452;BME280;45528;52.102;5.242;2023-02-01T05:15:24;101421.0;;;12.76;51.27
32452;BME280;45528;52.102;5.242;2023-02-01T05:16:59;101427.0;;;13.0;50.65
32452;BME280;45528;52.102;5.242;2023-02-01T05:18:35;101424.0;;;13.0;50.56
32452;BME280;45528;52.102;5.242;2023-02-01T05:21:48;101421.0;;;13.01;50.53
32452;BME280;45528;52.102;5.242;2023-02-01T05:23:24;101423.0;;;13.05;50.53
32452;BME280;45528;52.102;5.242;2023-02-01T05:25:01;101426.0;;;12.89;50.59
32452;BME280;45528;52.102;5.242;2023-02-01T05:28:16;101431.0;;;12.81;50.93
32452;BME280;45528;52.102;5.242;2023-02-01T05:29:51;101432.0;;;13.28;50.08
32452;BME280;45528;52.102;5.242;2023-02-01T05:31:28;101445.0;;;13.02;50.55
32452;BME280;45528;52.102;5.242;2023-02-01T05:33:04;101443.0;;;12.9;50.93
32452;BME280;45528;52.102;5.242;2023-02-01T05:36:16;101440.0;;;12.85;51.09
32452;BME280;45528;52.102;5.242;2023-02-01T05:37:53;101449.0;;;12.83;51.25
32452;BME280;45528;52.102;5.242;2023-02-01T05:39:29;101450.0;;;12.61;51.58
32452;BME280;45528;52.102;5.242;2023-02-01T05:42:41;101456.0;;;13.01;51.05
32452;BME280;45528;52.102;5.242;2023-02-01T05:44:17;101459.0;;;12.8;51.39
32452;BME280;45528;52.102;5.242;2023-02-01T05:45:53;101449.0;;;12.83;51.31
32452;BME280;45528;52.102;5.242;2023-02-01T05:49:06;101441.0;;;12.91;51.34
32452;BME280;45528;52.102;5.242;2023-02-01T05:50:43;101445.0;;;12.82;51.46
32452;BME280;45528;52.102;5.242;2023-02-01T05:52:19;101440.0;;;13.18;50.59
32452;BME280;45528;52.102;5.242;2023-02-01T05:53:55;101444.0;;;13.14;50.66
32452;BME280;45528;52.102;5.242;2023-02-01T05:57:08;101438.0;;;12.61;51.68
32452;BME280;45528;52.102;5.242;2023-02-01T05:58:44;101440.0;;;13.02;51.23
32452;BME280;45528;52.102;5.242;2023-02-01T06:00:22;101445.0;;;12.81;51.46
32452;BME280;45528;52.102;5.242;2023-02-01T06:03:35;101432.0;;;12.77;51.83
32452;BME280;45528;52.102;5.242;2023-02-01T06:05:12;101438.0;;;12.99;51.46
32452;BME280;45528;52.102;5.242;2023-02-01T06:06:50;101436.0;;;12.88;51.69
32452;BME280;45528;52.102;5.242;2023-02-01T06:10:03;101448.0;;;12.79;51.41
32452;BME280;45528;52.102;5.242;2023-02-01T06:11:41;101447.0;;;12.96;51.36
32452;BME280;45528;52.102;5.242;2023-02-01T06:13:17;101445.0;;;12.82;51.91
32452;BME280;45528;52.102;5.242;2023-02-01T06:14:54;101445.0;;;12.69;51.93
32452;BME280;45528;52.102;5.242;2023-02-01T06:18:07;101448.0;;;13.04;51.18
32452;BME280;45528;52.102;5.242;2023-02-01T06:19:44;101447.0;;;12.68;52.21
32452;BME280;45528;52.102;5.242;2023-02-01T06:21:23;101443.0;;;12.54;52.4
32452;BME280;45528;52.102;5.242;2023-02-01T06:24:35;101455.0;;;13.01;51.61
32452;BME280;45528;52.102;5.242;2023-02-01T06:26:11;101456.0;;;12.68;52.29
32452;BME280;45528;52.102;5.242;2023-02-01T06:27:48;101458.0;;;12.83;51.94
32452;BME280;45528;52.102;5.242;2023-02-01T06:29:26;101455.0;;;12.6;52.59
32452;BME280;45528;52.102;5.242;2023-02-01T06:32:41;101451.0;;;12.58;52.42
32452;BME280;45528;52.102;5.242;2023-02-01T06:34:19;101459.0;;;12.54;52.42
32452;BME280;45528;52.102;5.242;2023-02-01T06:35:57;101461.0;;;12.21;53.34
32452;BME280;45528;52.102;5.242;2023-02-01T06:39:15;101455.0;;;12.34;52.96
32452;BME280;45528;52.102;5.242;2023-02-01T06:40:52;101457.0;;;12.68;52.26
32452;BME280;45528;52.102;5.242;2023-02-01T06:42:30;101456.0;;;12.68;52.15
32452;BME280;45528;52.102;5.242;2023-02-01T06:44:06;101457.0;;;12.64;52.18
32452;BME280;45528;52.102;5.242;2023-02-01T06:47:18;101455.0;;;12.54;52.33
32452;BME280;45528;52.102;5.242;2023-02-01T06:48:54;101455.0;;;12.7;52.28
32452;BME280;45528;52.102;5.242;2023-02-01T06:50:30;101452.0;;;12.36;52.87
32452;BME280;45528;52.102;5.242;2023-02-01T06:53:43;101455.0;;;12.36;52.97
32452;BME280;45528;52.102;5.242;2023-02-01T06:55:19;101455.0;;;12.51;52.76
32452;BME280;45528;52.102;5.242;2023-02-01T06:56:55;101455.0;;;12.82;52.23
32452;BME280;45528;52.102;5.242;2023-02-01T07:00:10;101458.0;;;12.44;53.12
32452;BME280;45528;52.102;5.242;2023-02-01T07:01:46;101455.0;;;12.9;51.99
32452;BME280;45528;52.102;5.242;2023-02-01T07:03:22;101462.0;;;12.74;52.25
32452;BME280;45528;52.102;5.242;2023-02-01T07:04:58;101459.0;;;12.73;52.52
32452;BME280;45528;52.102;5.242;2023-02-01T07:08:11;101459.0;;;12.97;52.01
32452;BME280;45528;52.102;5.242;2023-02-01T07:09:47;101451.0;;;12.65;52.67
32452;BME280;45528;52.102;5.242;2023-02-01T07:11:23;101451.0;;;13.02;52.16
32452;BME280;45528;52.102;5.242;2023-02-01T07:14:36;101459.0;;;12.42;52.95
32452;BME280;45528;52.102;5.242;2023-02-01T07:16:14;101452.0;;;12.9;52.45
32452;BME280;45528;52.102;5.242;2023-02-01T07:17:54;101452.0;;;12.8;52.25
32452;BME280;45528;52.102;5.242;2023-02-01T07:21:07;101455.0;;;12.86;52.27
32452;BME280;45528;52.102;5.242;2023-02-01T07:22:44;101457.0;;;12.57;52.8
32452;BME280;45528;52.102;5.242;2023-02-01T07:24:21;101451.0;;;12.63;52.88
32452;BME280;45528;52.102;5.242;2023-02-01T07:25:59;101458.0;;;13.17;51.46
32452;BME280;45528;52.102;5.242;2023-02-01T07:29:13;101457.0;;;12.73;52.12
32452;BME280;45528;52.102;5.242;2023-02-01T07:30:51;101461.0;;;12.92;51.91
32452;BME280;45528;52.102;5.242;2023-02-01T07:32:27;101449.0;;;12.53;52.36
32452;BME280;45528;52.102;5.242;2023-02-01T07:35:41;101468.0;;;12.63;52.23
32452;BME280;45528;52.102;5.242;2023-02-01T07:37:17;101465.0;;;12.17;53.04
32452;BME280;45528;52.102;5.242;2023-02-01T07:38:54;101455.0;;;12.56;52.78
32452;BME280;45528;52.102;5.242;2023-02-01T07:42:07;101457.0;;;12.54;52.74
32452;BME280;45528;52.102;5.242;2023-02-01T07:43:43;101461.0;;;12.76;52.1
32452;BME280;45528;52.102;5.242;2023-02-01T07:45:20;101458.0;;;12.52;52.92
32452;BME280;45528;52.102;5.242;2023-02-01T07:46:56;101453.0;;;12.56;53.02
32452;BME280;45528;52.102;5.242;2023-02-01T07:50:10;101456.0;;;12.6;52.79
32452;BME280;45528;52.102;5.242;2023-02-01T07:51:46;101460.0;;;12.59;52.66
32452;BME280;45528;52.102;5.242;2023-02-01T07:53:22;101460.0;;;12.71;52.51
32452;BME280;45528;52.102;5.242;2023-02-01T07:56:34;101458.0;;;12.64;52.63
32452;BME280;45528;52.102;5.242;2023-02-01T07:58:11;101470.0;;;12.72;52.42
32452;BME280;45528;52.102;5.242;2023-02-01T08:01:22;101465.0;;;12.8;52.29
32452;BME280;45528;52.102;5.242;2023-02-01T08:03:21;101471.0;;;12.66;52.78
32452;BME280;45528;52.102;5.242;2023-02-01T08:04:57;101469.0;;;12.59;52.8
32452;BME280;45528;52.102;5.242;2023-02-01T08:06:34;101480.0;;;12.52;53.28
32452;BME280;45528;52.102;5.242;2023-02-01T08:08:10;101489.0;;;12.62;52.8
32452;BME280;45528;52.102;5.242;2023-02-01T08:11:23;101485.0;;;12.52;53.48
32452;BME280;45528;52.102;5.242;2023-02-01T08:13:02;101480.0;;;12.4;53.58
32452;BME280;45528;52.102;5.242;2023-02-01T08:14:40;101467.0;;;12.44;53.77
32452;BME280;45528;52.102;5.242;2023-02-01T08:16:19;101466.0;;;12.41;53.42
32452;BME280;45528;52.102;5.242;2023-02-01T08:19:32;101469.0;;;12.53;53.26
32452;BME280;45528;52.102;5.242;2023-02-01T08:21:10;101475.0;;;12.47;53.29
32452;BME280;45528;52.102;5.242;2023-02-01T08:22:48;101464.0;;;12.6;53.03
32452;BME280;45528;52.102;5.242;2023-02-01T08:26:06;101461.0;;;12.36;53.42
32452;BME280;45528;52.102;5.242;2023-02-01T08:27:48;101465.0;;;12.53;53.16
32452;BME280;45528;52.102;5.242;2023-02-01T08:29:24;101461.0;;;12.69;52.75
32452;BME280;45528;52.102;5.242;2023-02-01T08:31:04;101458.0;;;12.37;53.48
32452;BME280;45528;52.102;5.242;2023-02-01T08:34:17;101461.0;;;13.1;52.06
32452;BME280;45528;52.102;5.242;2023-02-01T08:35:53;101466.0;;;12.87;52.18
32452;BME280;45528;52.102;5.242;2023-02-01T08:37:28;101462.0;;;12.96;52.32
32452;BME280;45528;52.102;5.242;2023-02-01T08:44:31;101462.0;;;12.94;52.38
32452;BME280;45528;52.102;5.242;2023-02-01T08:46:07;101447.0;;;12.82;52.62
32452;BME280;45528;52.102;5.242;2023-02-01T08:47:47;101453.0;;;13.31;51.6
32452;BME280;45528;52.102;5.242;2023-02-01T08:49:23;101456.0;;;12.87;52.17
32452;BME280;45528;52.102;5.242;2023-02-01T08:51:01;101461.0;;;13.05;52.09
32452;BME280;45528;52.102;5.242;2023-02-01T08:54:14;101461.0;;;13.26;52.07
32452;BME280;45528;52.102;5.242;2023-02-01T08:55:50;101463.0;;;13.15;52.05
32452;BME280;45528;52.102;5.242;2023-02-01T08:57:26;101460.0;;;13.46;51.08
32452;BME280;45528;52.102;5.242;2023-02-01T09:00:40;101464.0;;;13.52;51.1
32452;BME280;45528;52.102;5.242;2023-02-01T09:02:18;101461.0;;;13.75;50.72
32452;BME280;45528;52.102;5.242;2023-02-01T09:03:55;101456.0;;;13.23;51.88
32452;BME280;45528;52.102;5.242;2023-02-01T09:07:07;101452.0;;;13.42;51.33
32452;BME280;45528;52.102;5.242;2023-02-01T09:08:44;101449.0;;;13.56;51.08
32452;BME280;45528;52.102;5.242;2023-02-01T09:10:20;101446.0;;;13.68;51.02
32452;BME280;45528;52.102;5.242;2023-02-01T09:11:56;101441.0;;;13.29;51.78
32452;BME280;45528;52.102;5.242;2023-02-01T09:15:10;101446.0;;;13.48;51.06
32452;BME280;45528;52.102;5.242;2023-02-01T09:16:47;101440.0;;;13.87;50.59
32452;BME280;45528;52.102;5.242;2023-02-01T09:18:23;101432.0;;;13.87;50.65
32452;BME280;45528;52.102;5.242;2023-02-01T09:21:37;101437.0;;;13.44;51.28
32452;BME280;45528;52.102;5.242;2023-02-01T09:23:13;101431.0;;;13.58;51.22
32452;BME280;45528;52.102;5.242;2023-02-01T09:24:51;101431.0;;;14.07;50.1
32452;BME280;45528;52.102;5.242;2023-02-01T09:28:06;101430.0;;;14.11;49.81
32452;BME280;45528;52.102;5.242;2023-02-01T09:29:42;101435.0;;;14.05;49.76
32452;BME280;45528;52.102;5.242;2023-02-01T09:31:18;101433.0;;;13.69;50.18
32452;BME280;45528;52.102;5.242;2023-02-01T09:32:55;101451.0;;;13.82;50.33
32452;BME280;45528;52.102;5.242;2023-02-01T09:36:09;101440.0;;;13.9;49.89
32452;BME280;45528;52.102;5.242;2023-02-01T09:37:45;101451.0;;;13.58;50.5
32452;BME280;45528;52.102;5.242;2023-02-01T09:39:21;101447.0;;;13.76;50.21
32452;BME280;45528;52.102;5.242;2023-02-01T09:42:49;101446.0;;;13.75;50.44
32452;BME280;45528;52.102;5.242;2023-02-01T09:45:38;101441.0;;;14.02;49.9
32452;BME280;45528;52.102;5.242;2023-02-01T09:47:21;101444.0;;;14.25;49.52
32452;BME280;45528;52.102;5.242;2023-02-01T09:49:02;101452.0;;;13.72;50.27
32452;BME280;45528;52.102;5.242;2023-02-01T09:50:54;101445.0;;;14.0;50.04
32452;BME280;45528;52.102;5.242;2023-02-01T09:52:36;101455.0;;;13.76;50.65
32452;BME280;45528;52.102;5.242;2023-02-01T09:54:30;101445.0;;;13.68;50.87
32452;BME280;45528;52.102;5.242;2023-02-01T09:56:21;101451.0;;;13.65;50.65
32452;BME280;45528;52.102;5.242;2023-02-01T09:58:03;101452.0;;;13.98;49.98
32452;BME280;45528;52.102;5.242;2023-02-01T10:01:24;101451.0;;;14.08;49.68
32452;BME280;45528;52.102;5.242;2023-02-01T10:03:03;101447.0;;;14.27;49.86
32452;BME280;45528;52.102;5.242;2023-02-01T10:04:39;101443.0;;;13.42;51.3
32452;BME280;45528;52.102;5.242;2023-02-01T10:06:57;101430.0;;;13.68;50.51
32452;BME280;45528;52.102;5.242;2023-02-01T10:08:47;101441.0;;;13.53;50.82
32452;BME280;45528;52.102;5.242;2023-02-01T10:10:40;101432.0;;;13.75;50.96
32452;BME280;45528;52.102;5.242;2023-02-01T10:16:05;101437.0;;;13.58;51.99
32452;BME280;45528;52.102;5.242;2023-02-01T10:17:56;101437.0;;;13.5;52.5
32452;BME280;45528;52.102;5.242;2023-02-01T10:19:48;101443.0;;;13.33;53.13
32452;BME280;45528;52.102;5.242;2023-02-01T10:21:39;101443.0;;;13.14;54.15
32452;BME280;45528;52.102;5.242;2023-02-01T10:23:36;101442.0;;;12.98;55.39
32452;BME280;45528;52.102;5.242;2023-02-01T10:26:18;101443.0;;;12.88;55.87
32452;BME280;45528;52.102;5.242;2023-02-01T10:27:56;101443.0;;;12.59;56.41
32452;BME280;45528;52.102;5.242;2023-02-01T10:29:39;101439.0;;;12.73;56.33
32452;BME280;45528;52.102;5.242;2023-02-01T10:33:05;101440.0;;;12.75;56.34
32452;BME280;45528;52.102;5.242;2023-02-01T10:34:57;101450.0;;;12.63;56.49
32452;BME280;45528;52.102;5.242;2023-02-01T10:36:40;101452.0;;;13.05;55.33
32452;BME280;45528;52.102;5.242;2023-02-01T10:38:24;101446.0;;;13.12;54.85
32452;BME280;45528;52.102;5.242;2023-02-01T10:40:12;101438.0;;;13.2;54.54
32452;BME280;45528;52.102;5.242;2023-02-01T10:41:57;101424.0;;;12.99;54.2
32452;BME280;45528;52.102;5.242;2023-02-01T10:45:13;101434.0;;;12.94;54.59
32452;BME280;45528;52.102;5.242;2023-02-01T10:46:51;101427.0;;;13.04;54.13
32452;BME280;45528;52.102;5.242;2023-02-01T10:48:29;101405.0;;;12.77;54.27
32452;BME280;45528;52.102;5.242;2023-02-01T10:51:58;101430.0;;;12.87;53.98
32452;BME280;45528;52.102;5.242;2023-02-01T10:53:43;101437.0;;;13.34;52.92
32452;BME280;45528;52.102;5.242;2023-02-01T10:55:33;101432.0;;;13.37;52.19
32452;BME280;45528;52.102;5.242;2023-02-01T10:57:20;101436.0;;;13.58;52.43
32452;BME280;45528;52.102;5.242;2023-02-01T10:59:01;101428.0;;;13.26;52.81
32452;BME280;45528;52.102;5.242;2023-02-01T11:00:43;101430.0;;;13.33;52.71
32452;BME280;45528;52.102;5.242;2023-02-01T11:04:05;101428.0;;;13.52;52.27
32452;BME280;45528;52.102;5.242;2023-02-01T11:05:46;101420.0;;;13.29;52.29
32452;BME280;45528;52.102;5.242;2023-02-01T11:07:24;101421.0;;;13.49;51.9
32452;BME280;45528;52.102;5.242;2023-02-01T11:09:11;101430.0;;;13.59;51.59
32452;BME280;45528;52.102;5.242;2023-02-01T11:12:36;101417.0;;;13.45;52.3
32452;BME280;45528;52.102;5.242;2023-02-01T11:14:15;101409.0;;;13.42;52.76
32452;BME280;45528;52.102;5.242;2023-02-01T11:15:55;101407.0;;;13.07;53.5
32452;BME280;45528;52.102;5.242;2023-02-01T11:17:34;101406.0;;;13.17;53.79
32452;BME280;45528;52.102;5.242;2023-02-01T11:20:53;101428.0;;;13.39;53.12
32452;BME280;45528;52.102;5.242;2023-02-01T11:22:30;101412.0;;;12.94;54.39
32452;BME280;45528;52.102;5.242;2023-02-01T11:24:18;101428.0;;;13.12;54.3
32452;BME280;45528;52.102;5.242;2023-02-01T11:26:01;101425.0;;;13.45;53.78
32452;BME280;45528;52.102;5.242;2023-02-01T11:29:34;101415.0;;;13.35;53.49
32452;BME280;45528;52.102;5.242;2023-02-01T11:31:12;101418.0;;;13.43;53.2
32452;BME280;45528;52.102;5.242;2023-02-01T11:32:50;101415.0;;;13.26;53.97
32452;BME280;45528;52.102;5.242;2023-02-01T11:34:35;101405.0;;;13.57;53.17
32452;BME280;45528;52.102;5.242;2023-02-01T11:36:17;101412.0;;;13.28;53.72